Time,TemperatureF,DewpointF,PressureIn,WindDirection,WindDirectionDegrees,WindSpeedMPH,WindSpeedGustMPH,Humidity,HourlyPrecipIn,Conditions,Clouds,dailyrainin,SolarRadiationWatts/m^2,SoftwareType,DateUTC
2014-02-01 00:00:00,35.7,36.0,30.19,ENE,74,0.0,0.0,100,0.00,,,0.00,0,weatherlink.com 1.10,2014-02-01 05:00:00,
2014-02-01 00:15:00,35.5,36.0,30.19,ENE,74,0.0,0.0,100,0.00,,,0.00,0,weatherlink.com 1.10,2014-02-01 05:15:00,
2014-02-01 00:30:00,35.6,36.0,30.19,ENE,74,0.0,0.0,100,0.00,,,0.00,0,weatherlink.com 1.10,2014-02-01 05:30:00,
2014-02-01 00:45:00,36.0,36.0,30.19,ENE,74,0.0,0.0,100,0.00,,,0.00,0,weatherlink.com 1.10,2014-02-01 05:45:00,
2014-02-01 01:00:00,36.8,37.0,30.18,ENE,74,0.0,0.0,100,0.00,,,0.00,0,weatherlink.com 1.10,2014-02-01 06:00:00,
2014-02-01 01:15:00,37.8,38.0,30.18,ENE,74,0.0,0.0,100,0.00,,,0.00,0,weatherlink.com 1.10,2014-02-01 06:15:00,
2014-02-01 01:30:00,38.6,39.0,30.18,ENE,74,0.0,0.0,100,0.00,,,0.00,0,weatherlink.com 1.10,2014-02-01 06:30:00,
2014-02-01 01:45:00,39.1,39.0,30.17,ENE,74,0.0,0.0,100,0.00,,,0.00,0,weatherlink.com 1.10,2014-02-01 06:45:00,
2014-02-01 02:00:00,39.8,40.0,30.17,ENE,74,0.0,0.0,100,0.00,,,0.00,0,weatherlink.com 1.10,2014-02-01 07:00:00,
2014-02-01 02:16:00,40.6,41.0,30.16,ENE,74,0.0,1.0,100,0.00,,,0.00,0,weatherlink.com 1.10,2014-02-01 07:16:00,
2014-02-01 02:30:00,40.9,41.0,30.16,ENE,74,0.0,1.0,100,0.00,,,0.00,0,weatherlink.com 1.10,2014-02-01 07:30:00,
2014-02-01 02:45:00,41.5,42.0,30.15,ENE,74,0.0,1.0,100,0.00,,,0.00,0,weatherlink.com 1.10,2014-02-01 07:45:00,
2014-02-01 03:00:00,42.0,42.0,30.15,ENE,74,0.0,1.0,100,0.00,,,0.00,0,weatherlink.com 1.10,2014-02-01 08:00:00,
2014-02-01 03:15:00,42.4,42.0,30.14,ENE,74,0.0,0.0,100,0.00,,,0.00,0,weatherlink.com 1.10,2014-02-01 08:15:00,
2014-02-01 03:30:00,42.7,43.0,30.14,ENE,74,0.0,0.0,100,0.00,,,0.00,0,weatherlink.com 1.10,2014-02-01 08:30:00,
2014-02-01 03:45:00,43.0,43.0,30.14,ENE,74,0.0,0.0,100,0.00,,,0.00,0,weatherlink.com 1.10,2014-02-01 08:45:00,
2014-02-01 04:00:00,43.4,43.0,30.14,ENE,74,0.0,0.0,100,0.00,,,0.00,0,weatherlink.com 1.10,2014-02-01 09:00:00,
2014-02-01 04:15:00,43.6,44.0,30.14,ENE,74,0.0,0.0,100,0.00,,,0.00,0,weatherlink.com 1.10,2014-02-01 09:15:00,
2014-02-01 04:30:00,43.9,44.0,30.14,ENE,74,0.0,0.0,100,0.00,,,0.00,0,weatherlink.com 1.10,2014-02-01 09:30:00,
2014-02-01 04:45:00,44.2,44.0,30.14,ENE,74,0.0,0.0,100,0.01,,,0.01,0,weatherlink.com 1.10,2014-02-01 09:45:00,
2014-02-01 05:00:00,44.3,44.0,30.14,ENE,74,0.0,0.0,100,0.04,,,0.04,0,weatherlink.com 1.10,2014-02-01 10:00:00,
2014-02-01 05:15:00,44.4,44.0,30.14,ENE,74,0.0,1.0,100,0.04,,,0.04,0,weatherlink.com 1.10,2014-02-01 10:15:00,
2014-02-01 05:30:00,44.4,44.0,30.14,NE,50,0.0,3.0,100,0.05,,,0.05,0,weatherlink.com 1.10,2014-02-01 10:30:00,
2014-02-01 05:45:00,44.4,44.0,30.14,NNE,29,0.0,2.0,100,0.05,,,0.06,0,weatherlink.com 1.10,2014-02-01 10:45:00,
2014-02-01 06:00:00,44.5,45.0,30.14,NNE,29,0.0,1.0,100,0.02,,,0.06,0,weatherlink.com 1.10,2014-02-01 11:00:00,
2014-02-01 06:15:00,44.7,45.0,30.14,NNE,16,0.0,3.0,100,0.02,,,0.06,0,weatherlink.com 1.10,2014-02-01 11:15:00,
2014-02-01 06:30:00,44.9,45.0,30.14,NE,50,1.0,3.0,100,0.03,,,0.08,0,weatherlink.com 1.10,2014-02-01 11:30:00,
2014-02-01 06:45:00,45.0,45.0,30.15,NE,35,0.0,4.0,100,0.03,,,0.09,0,weatherlink.com 1.10,2014-02-01 11:45:00,
2014-02-01 07:00:00,45.1,45.0,30.15,NNW,343,0.0,2.0,100,0.03,,,0.09,0,weatherlink.com 1.10,2014-02-01 12:00:00,
2014-02-01 07:15:00,45.1,45.0,30.16,North,358,0.0,2.0,100,0.03,,,0.09,0,weatherlink.com 1.10,2014-02-01 12:15:00,
2014-02-01 07:30:00,45.3,45.0,30.16,ENE,60,0.0,1.0,100,0.02,,,0.10,0,weatherlink.com 1.10,2014-02-01 12:30:00,
2014-02-01 07:45:00,45.4,45.0,30.16,NNE,21,3.0,4.0,100,0.01,,,0.10,0,weatherlink.com 1.10,2014-02-01 12:45:00,
2014-02-01 08:00:00,45.4,45.0,30.17,North,349,2.0,3.0,100,0.01,,,0.10,5,weatherlink.com 1.10,2014-02-01 13:00:00,
2014-02-01 08:15:00,45.0,45.0,30.18,East,100,0.0,5.0,100,0.01,,,0.10,9,weatherlink.com 1.10,2014-02-01 13:15:00,
2014-02-01 08:30:00,44.7,45.0,30.17,ENE,64,0.0,2.0,100,0.01,,,0.11,11,weatherlink.com 1.10,2014-02-01 13:30:00,
2014-02-01 08:45:00,44.7,45.0,30.18,NE,50,0.0,5.0,100,0.01,,,0.11,30,weatherlink.com 1.10,2014-02-01 13:45:00,
2014-02-01 09:00:00,44.8,45.0,30.18,NE,56,0.0,3.0,100,0.01,,,0.11,32,weatherlink.com 1.10,2014-02-01 14:00:00,
2014-02-01 09:15:00,44.8,45.0,30.18,NNE,13,0.0,5.0,100,0.01,,,0.11,35,weatherlink.com 1.10,2014-02-01 14:15:00,
2014-02-01 09:30:00,44.9,45.0,30.19,ENE,62,1.0,5.0,100,0.02,,,0.13,16,weatherlink.com 1.10,2014-02-01 14:30:00,
2014-02-01 09:45:00,44.9,45.0,30.19,NE,40,0.0,4.0,100,0.10,,,0.21,47,weatherlink.com 1.10,2014-02-01 14:45:00,
2014-02-01 10:00:00,45.0,45.0,30.19,NE,50,0.0,2.0,100,0.10,,,0.21,40,weatherlink.com 1.10,2014-02-01 15:00:00,
2014-02-01 10:15:00,45.3,45.0,30.19,NE,50,0.0,2.0,100,0.12,,,0.23,60,weatherlink.com 1.10,2014-02-01 15:15:00,
2014-02-01 10:30:00,45.5,46.0,30.19,East,80,0.0,4.0,100,0.10,,,0.23,30,weatherlink.com 1.10,2014-02-01 15:30:00,
2014-02-01 10:45:00,45.6,46.0,30.19,East,99,1.0,2.0,100,0.03,,,0.24,56,weatherlink.com 1.10,2014-02-01 15:45:00,
2014-02-01 11:00:00,45.8,46.0,30.19,ENE,77,0.0,5.0,100,0.03,,,0.24,79,weatherlink.com 1.10,2014-02-01 16:00:00,
2014-02-01 11:15:00,45.8,46.0,30.19,East,83,2.0,5.0,100,0.01,,,0.00,53,weatherlink.com 1.10,2014-02-01 16:15:00,
2014-02-01 11:30:00,45.8,46.0,30.18,North,351,0.0,6.0,100,0.01,,,0.00,79,weatherlink.com 1.10,2014-02-01 16:30:00,
2014-02-01 11:45:00,45.9,46.0,30.18,NNE,25,0.0,4.0,100,0.00,,,0.00,84,weatherlink.com 1.10,2014-02-01 16:45:00,
2014-02-01 12:00:00,46.2,46.0,30.18,NE,35,0.0,4.0,100,0.00,,,0.00,83,weatherlink.com 1.10,2014-02-01 17:00:00,
2014-02-01 12:15:00,46.5,47.0,30.17,NNE,25,1.0,3.0,100,0.00,,,0.00,95,weatherlink.com 1.10,2014-02-01 17:15:00,
2014-02-01 12:30:00,46.7,47.0,30.16,North,7,0.0,3.0,100,0.00,,,0.00,134,weatherlink.com 1.10,2014-02-01 17:30:00,
2014-02-01 12:45:00,46.8,47.0,30.16,NE,50,0.0,3.0,100,0.01,,,0.01,102,weatherlink.com 1.10,2014-02-01 17:45:00,
2014-02-01 13:00:00,47.0,47.0,30.14,NE,54,2.0,4.0,100,0.02,,,0.02,211,weatherlink.com 1.10,2014-02-01 18:00:00,
2014-02-01 13:15:00,47.4,47.0,30.14,NNE,21,3.0,4.0,100,0.02,,,0.02,171,weatherlink.com 1.10,2014-02-01 18:15:00,
2014-02-01 13:30:00,48.0,48.0,30.13,NNW,339,2.0,2.0,100,0.02,,,0.02,178,weatherlink.com 1.10,2014-02-01 18:30:00,
2014-02-01 13:45:00,47.8,48.0,30.12,NNW,336,1.0,4.0,100,0.01,,,0.02,121,weatherlink.com 1.10,2014-02-01 18:45:00,
2014-02-01 14:00:00,47.9,48.0,30.12,NNE,22,0.0,4.0,100,0.00,,,0.02,58,weatherlink.com 1.10,2014-02-01 19:00:00,
2014-02-01 14:15:00,48.0,48.0,30.12,East,91,0.0,2.0,100,0.00,,,0.02,63,weatherlink.com 1.10,2014-02-01 19:15:00,
2014-02-01 14:30:00,47.9,48.0,30.11,East,87,0.0,1.0,100,0.00,,,0.02,185,weatherlink.com 1.10,2014-02-01 19:30:00,
2014-02-01 14:45:00,48.4,48.0,30.11,East,95,0.0,1.0,100,0.00,,,0.02,65,weatherlink.com 1.10,2014-02-01 19:45:00,
2014-02-01 15:00:00,48.6,49.0,30.11,ENE,60,1.0,3.0,100,0.00,,,0.02,70,weatherlink.com 1.10,2014-02-01 20:00:00,
2014-02-01 15:16:00,48.8,49.0,30.11,NE,40,0.0,1.0,100,0.00,,,0.02,60,weatherlink.com 1.10,2014-02-01 20:16:00,
2014-02-01 15:31:00,48.8,49.0,30.12,NNE,14,0.0,4.0,100,0.00,,,0.02,35,weatherlink.com 1.10,2014-02-01 20:31:00,
2014-02-01 15:46:00,48.6,49.0,30.12,NNE,15,0.0,2.0,100,0.00,,,0.02,39,weatherlink.com 1.10,2014-02-01 20:46:00,
2014-02-01 16:01:00,48.7,49.0,30.11,NNE,18,0.0,2.0,100,0.00,,,0.02,46,weatherlink.com 1.10,2014-02-01 21:01:00,
2014-02-01 16:16:00,48.8,49.0,30.12,NE,55,0.0,1.0,100,0.00,,,0.02,30,weatherlink.com 1.10,2014-02-01 21:16:00,
2014-02-01 16:31:00,48.7,49.0,30.12,NE,55,0.0,1.0,100,0.00,,,0.02,30,weatherlink.com 1.10,2014-02-01 21:31:00,
2014-02-01 16:46:00,48.6,49.0,30.11,NNW,337,2.0,3.0,100,0.00,,,0.02,35,weatherlink.com 1.10,2014-02-01 21:46:00,
2014-02-01 17:01:00,48.4,48.0,30.11,South,178,0.0,2.0,100,0.00,,,0.02,25,weatherlink.com 1.10,2014-02-01 22:01:00,
2014-02-01 17:16:00,48.3,48.0,30.12,NNW,343,0.0,2.0,100,0.00,,,0.02,14,weatherlink.com 1.10,2014-02-01 22:16:00,
2014-02-01 17:31:00,48.2,48.0,30.12,NNW,343,0.0,1.0,100,0.00,,,0.02,5,weatherlink.com 1.10,2014-02-01 22:31:00,
2014-02-01 17:46:00,48.1,48.0,30.12,NNW,341,0.0,0.0,100,0.00,,,0.02,0,weatherlink.com 1.10,2014-02-01 22:46:00,
2014-02-01 18:01:00,48.0,48.0,30.13,NNW,341,0.0,0.0,100,0.00,,,0.02,0,weatherlink.com 1.10,2014-02-01 23:01:00,
2014-02-01 18:16:00,47.9,48.0,30.13,NNW,341,0.0,0.0,100,0.00,,,0.02,0,weatherlink.com 1.10,2014-02-01 23:16:00,
2014-02-01 18:31:00,47.9,48.0,30.13,NNW,341,0.0,1.0,100,0.00,,,0.02,0,weatherlink.com 1.10,2014-02-01 23:31:00,
2014-02-01 18:46:00,47.8,48.0,30.14,NNW,341,0.0,1.0,100,0.00,,,0.02,0,weatherlink.com 1.10,2014-02-01 23:46:00,
2014-02-01 19:01:00,47.7,48.0,30.14,NNW,341,0.0,1.0,100,0.00,,,0.02,0,weatherlink.com 1.10,2014-02-02 00:01:00,
2014-02-01 19:16:00,47.6,48.0,30.15,NNW,341,0.0,1.0,100,0.00,,,0.02,0,weatherlink.com 1.10,2014-02-02 00:16:00,
2014-02-01 19:31:00,47.5,48.0,30.15,North,356,0.0,2.0,100,0.00,,,0.02,0,weatherlink.com 1.10,2014-02-02 00:31:00,
2014-02-01 19:46:00,47.2,47.0,30.16,North,9,2.0,2.0,100,0.00,,,0.02,0,weatherlink.com 1.10,2014-02-02 00:46:00,
2014-02-01 20:01:00,47.0,47.0,30.16,ENE,60,0.0,1.0,100,0.00,,,0.02,0,weatherlink.com 1.10,2014-02-02 01:01:00,
2014-02-01 20:16:00,46.7,47.0,30.17,NW,314,0.0,2.0,100,0.00,,,0.02,0,weatherlink.com 1.10,2014-02-02 01:16:00,
2014-02-01 20:31:00,46.5,47.0,30.16,NNE,33,0.0,3.0,100,0.00,,,0.02,0,weatherlink.com 1.10,2014-02-02 01:31:00,
2014-02-01 20:46:00,46.4,46.0,30.16,NNE,33,0.0,0.0,100,0.00,,,0.02,0,weatherlink.com 1.10,2014-02-02 01:46:00,
2014-02-01 21:01:00,46.3,46.0,30.16,NE,45,0.0,2.0,100,0.00,,,0.02,0,weatherlink.com 1.10,2014-02-02 02:01:00,
2014-02-01 21:16:00,46.2,46.0,30.16,NE,45,0.0,1.0,100,0.00,,,0.02,0,weatherlink.com 1.10,2014-02-02 02:16:00,
2014-02-01 21:31:00,46.0,46.0,30.16,NE,40,0.0,2.0,100,0.00,,,0.02,0,weatherlink.com 1.10,2014-02-02 02:31:00,
2014-02-01 21:46:00,45.9,46.0,30.16,NE,40,0.0,1.0,100,0.01,,,0.03,0,weatherlink.com 1.10,2014-02-02 02:46:00,
2014-02-01 22:01:00,45.8,46.0,30.16,NE,40,0.0,1.0,100,0.01,,,0.03,0,weatherlink.com 1.10,2014-02-02 03:01:00,
2014-02-01 22:16:00,45.7,46.0,30.16,NE,40,0.0,1.0,100,0.01,,,0.03,0,weatherlink.com 1.10,2014-02-02 03:16:00,
2014-02-01 22:31:00,45.6,46.0,30.17,NE,40,0.0,0.0,100,0.01,,,0.03,0,weatherlink.com 1.10,2014-02-02 03:31:00,
2014-02-01 22:46:00,45.6,46.0,30.16,NE,40,0.0,0.0,100,0.00,,,0.03,0,weatherlink.com 1.10,2014-02-02 03:46:00,
2014-02-01 23:01:00,45.6,46.0,30.17,NE,40,0.0,0.0,100,0.00,,,0.03,0,weatherlink.com 1.10,2014-02-02 04:01:00,
2014-02-01 23:16:00,45.5,46.0,30.17,NE,40,0.0,0.0,100,0.00,,,0.03,0,weatherlink.com 1.10,2014-02-02 04:16:00,
2014-02-01 23:31:00,45.4,45.0,30.16,NE,40,0.0,0.0,100,0.00,,,0.03,0,weatherlink.com 1.10,2014-02-02 04:31:00,
2014-02-01 23:46:00,45.5,46.0,30.16,NE,40,0.0,0.0,100,0.00,,,0.03,0,weatherlink.com 1.10,2014-02-02 04:46:00,